Pacific Pathfinder — PATH — position and weather

sailwx.info

Track history (hours):
 
Tides and Currents Weather Stations Pressure Air Temp Water Temp Dewpoint Dewpoint Depression Visibility Wind Speed Wind Dir Waves Ship Positions

Pacific Pathfinder

Last reported at 2014-Sep-19 01:33 UTC. Time now 2014-Sep-19 01:48 UTC.
Position N 54°18' W 130°21'.

Length 15 m; draft 1.3 m.

Type: Pilot. MMSI: 316003484.

Date/timePositionNaut miles runAvg speedWind from/ knotsBaromVisibWave heightAir tempDewpointWater temp
2014-Sep-19 01:33N 54°18' W 130°21'0 0.0
2014-Sep-19 00:33N 54°18' W 130°21'0 0.0
2014-Sep-18 23:33N 54°18' W 130°21'0 0.0
2014-Sep-18 22:33N 54°18' W 130°21'0 0.0
2014-Sep-18 21:33N 54°18' W 130°21'0 0.0
2014-Sep-18 20:33N 54°18' W 130°21'0 0.0
2014-Sep-18 19:33N 54°18' W 130°21'0 0.0
2014-Sep-17 09:33N 54°18' W 130°21'0 0.1
2014-Sep-17 03:16N 54°17' W 130°22'0 0.7
2014-Sep-17 02:33N 54°18' W 130°21'0 0.0
2014-Sep-17 01:33N 54°18' W 130°21'0 0.0
2014-Sep-17 00:33N 54°18' W 130°21'0 0.0
2014-Sep-16 23:33N 54°18' W 130°21'0 0.0
2014-Sep-16 22:33N 54°18' W 130°21'0 0.0
2014-Sep-16 21:33N 54°18' W 130°21'0 0.0
2014-Sep-16 20:33N 54°18' W 130°21'0 0.0
2014-Sep-16 19:34N 54°18' W 130°21'0 0.0
2014-Sep-16 18:33N 54°18' W 130°21'0 0.1
2014-Sep-16 17:33N 54°18' W 130°21'0 0.0
2014-Sep-16 09:33N 54°18' W 130°21'0 0.0
2014-Sep-16 08:34N 54°18' W 130°21'0 0.0
2014-Sep-16 04:33N 54°18' W 130°21'0 0.0
2014-Sep-16 03:34N 54°18' W 130°21'0 0.0
2014-Sep-16 02:33N 54°18' W 130°21'0 0.0
2014-Sep-16 01:33N 54°18' W 130°21'0 0.0
2014-Sep-16 00:33N 54°18' W 130°21'0 0.0
2014-Sep-15 23:33N 54°18' W 130°21'0 0.0
2014-Sep-15 22:33N 54°18' W 130°21'2 2.0
2014-Sep-15 21:32N 54°19' W 130°19'3 1.2
2014-Sep-15 19:13N 54°17' W 130°22'1 1.2
2014-Sep-15 18:34N 54°18' W 130°21'0 0.0
2014-Sep-15 17:33N 54°18' W 130°21'0 0.0
2014-Sep-15 16:33N 54°18' W 130°21'0 0.0
2014-Sep-15 15:34N 54°18' W 130°21'0 0.0
2014-Sep-15 14:34N 54°18' W 130°21'0 0.0
2014-Sep-15 09:34N 54°18' W 130°21'0 0.0
2014-Sep-15 08:34N 54°18' W 130°21'0 0.0
2014-Sep-15 07:33N 54°18' W 130°21'0 0.0
2014-Sep-15 06:34N 54°18' W 130°21'0 0.0
2014-Sep-15 05:33N 54°18' W 130°21'0 0.0
2014-Sep-15 04:33N 54°18' W 130°21'0 0.0
2014-Sep-15 03:33N 54°18' W 130°21'0 0.0
2014-Sep-15 02:34N 54°18' W 130°21'0 0.0
2014-Sep-15 01:34N 54°18' W 130°21'0 0.2
2014-Sep-14 23:24N 54°17' W 130°22'0 0.6
2014-Sep-14 22:33N 54°18' W 130°21'0 0.0
2014-Sep-14 18:34N 54°18' W 130°21'2 1.6
2014-Sep-14 17:19N 54°19' W 130°19'1 1.7
2014-Sep-14 16:33N 54°18' W 130°21'1 0.8
2014-Sep-14 15:34N 54°18' W 130°21'0 0.0
2014-Sep-14 14:33N 54°18' W 130°21'0 0.0
2014-Sep-14 03:31N 54°18' W 130°21'0 0.0
2014-Sep-14 02:33N 54°18' W 130°21'0 0.0
2014-Sep-14 01:33N 54°18' W 130°21'0 0.0
2014-Sep-13 21:34N 54°18' W 130°21'0 0.0
2014-Sep-13 20:33N 54°18' W 130°21'0 0.0
2014-Sep-13 19:33N 54°18' W 130°21'0 0.0
2014-Sep-12 20:06N 54°18' W 130°21'4 1.8
2014-Sep-12 18:08N 54°20' W 130°26'1 1.1
2014-Sep-12 17:33N 54°20' W 130°25'3 1.3
2014-Sep-12 15:20N 54°17' W 130°22'0 0.5
2014-Sep-12 14:33N 54°18' W 130°21'0 0.0
2014-Sep-11 22:33N 54°18' W 130°21'0 0.0
2014-Sep-11 21:33N 54°18' W 130°21'0 0.0
2014-Sep-11 20:33N 54°18' W 130°21'0 0.0
2014-Sep-11 19:33N 54°18' W 130°21'2 2.0
2014-Sep-11 18:33N 54°19' W 130°19'2 2.1
2014-Sep-11 17:33N 54°18' W 130°21'0 0.0
2014-Sep-11 16:33N 54°18' W 130°21'0 0.0
2014-Sep-11 15:33N 54°18' W 130°21'0 0.0
2014-Sep-11 14:33N 54°18' W 130°21'0 0.0
2014-Sep-11 04:12N 54°18' W 130°21'0 0.0
2014-Sep-11 01:33N 54°18' W 130°21'0 0.0
2014-Sep-11 00:33N 54°18' W 130°21'0 0.0
2014-Sep-10 23:33N 54°18' W 130°21'0 0.0
2014-Sep-10 22:33N 54°18' W 130°21'0 0.0
2014-Sep-10 21:33N 54°18' W 130°21'2 1.9
2014-Sep-10 20:31N 54°19' W 130°19'4 1.8
2014-Sep-10 18:21N 54°20' W 130°26'4 4.6
2014-Sep-10 17:33N 54°19' W 130°20'2 1.6
2014-Sep-10 16:33N 54°18' W 130°21'0 0.0
2014-Sep-10 15:33N 54°18' W 130°21'2 1.8
2014-Sep-10 14:33N 54°19' W 130°24'2 0.4
2014-Sep-10 09:34N 54°18' W 130°21'0 0.0
2014-Sep-10 08:33N 54°18' W 130°21'0 0.0
2014-Sep-10 07:33N 54°18' W 130°21'0 0.0
2014-Sep-10 06:33N 54°18' W 130°21'0 0.0
2014-Sep-10 05:33N 54°18' W 130°21'0 0.0
2014-Sep-10 04:33N 54°18' W 130°21'2 2.0
2014-Sep-10 03:33N 54°19' W 130°24'2 1.0
2014-Sep-10 01:31N 54°20' W 130°27'4 4.0
2014-Sep-10 00:33N 54°18' W 130°21'0 0.0
2014-Sep-09 23:33N 54°18' W 130°21'0 0.0
2014-Sep-09 22:33N 54°18' W 130°21'2 2.1
2014-Sep-09 21:33N 54°19' W 130°19'2 2.5
2014-Sep-09 20:33N 54°17' W 130°22'0 0.0
2014-Sep-09 09:33N 54°18' W 130°21'0 0.0
2014-Sep-09 08:33N 54°18' W 130°21'0 0.0
2014-Sep-09 07:33N 54°18' W 130°21'0 0.0
2014-Sep-09 04:33N 54°18' W 130°21'0 0.0
2014-Sep-09 03:33N 54°18' W 130°21'  
Track history (hours):
 
Tides and Currents Weather Stations Pressure Air Temp Water Temp Dewpoint Dewpoint Depression Visibility Wind Speed Wind Dir Waves Ship Positions

Pacific Pathfinder

Last reported at 2014-Sep-19 01:33 UTC. Time now 2014-Sep-19 01:48 UTC.
Position N 54°18' W 130°21'.

Length 15 m; draft 1.3 m.

Type: Pilot. MMSI: 316003484.

Date/timePositionNaut miles runAvg speedWind from/ knotsBaromVisibWave heightAir tempDewpointWater temp
2014-Sep-19 01:33N 54°18' W 130°21'0 0.0
2014-Sep-19 00:33N 54°18' W 130°21'0 0.0
2014-Sep-18 23:33N 54°18' W 130°21'0 0.0
2014-Sep-18 22:33N 54°18' W 130°21'0 0.0
2014-Sep-18 21:33N 54°18' W 130°21'0 0.0
2014-Sep-18 20:33N 54°18' W 130°21'0 0.0
2014-Sep-18 19:33N 54°18' W 130°21'0 0.0
2014-Sep-17 09:33N 54°18' W 130°21'0 0.1
2014-Sep-17 03:16N 54°17' W 130°22'0 0.7
2014-Sep-17 02:33N 54°18' W 130°21'0 0.0
2014-Sep-17 01:33N 54°18' W 130°21'0 0.0
2014-Sep-17 00:33N 54°18' W 130°21'0 0.0
2014-Sep-16 23:33N 54°18' W 130°21'0 0.0
2014-Sep-16 22:33N 54°18' W 130°21'0 0.0
2014-Sep-16 21:33N 54°18' W 130°21'0 0.0
2014-Sep-16 20:33N 54°18' W 130°21'0 0.0
2014-Sep-16 19:34N 54°18' W 130°21'0 0.0
2014-Sep-16 18:33N 54°18' W 130°21'0 0.1
2014-Sep-16 17:33N 54°18' W 130°21'0 0.0
2014-Sep-16 09:33N 54°18' W 130°21'0 0.0
2014-Sep-16 08:34N 54°18' W 130°21'0 0.0
2014-Sep-16 04:33N 54°18' W 130°21'0 0.0
2014-Sep-16 03:34N 54°18' W 130°21'0 0.0
2014-Sep-16 02:33N 54°18' W 130°21'0 0.0
2014-Sep-16 01:33N 54°18' W 130°21'0 0.0
2014-Sep-16 00:33N 54°18' W 130°21'0 0.0
2014-Sep-15 23:33N 54°18' W 130°21'0 0.0
2014-Sep-15 22:33N 54°18' W 130°21'2 2.0
2014-Sep-15 21:32N 54°19' W 130°19'3 1.2
2014-Sep-15 19:13N 54°17' W 130°22'1 1.2
2014-Sep-15 18:34N 54°18' W 130°21'0 0.0
2014-Sep-15 17:33N 54°18' W 130°21'0 0.0
2014-Sep-15 16:33N 54°18' W 130°21'0 0.0
2014-Sep-15 15:34N 54°18' W 130°21'0 0.0
2014-Sep-15 14:34N 54°18' W 130°21'0 0.0
2014-Sep-15 09:34N 54°18' W 130°21'0 0.0
2014-Sep-15 08:34N 54°18' W 130°21'0 0.0
2014-Sep-15 07:33N 54°18' W 130°21'0 0.0
2014-Sep-15 06:34N 54°18' W 130°21'0 0.0
2014-Sep-15 05:33N 54°18' W 130°21'0 0.0
2014-Sep-15 04:33N 54°18' W 130°21'0 0.0
2014-Sep-15 03:33N 54°18' W 130°21'0 0.0
2014-Sep-15 02:34N 54°18' W 130°21'0 0.0
2014-Sep-15 01:34N 54°18' W 130°21'0 0.2
2014-Sep-14 23:24N 54°17' W 130°22'0 0.6
2014-Sep-14 22:33N 54°18' W 130°21'0 0.0
2014-Sep-14 18:34N 54°18' W 130°21'2 1.6
2014-Sep-14 17:19N 54°19' W 130°19'1 1.7
2014-Sep-14 16:33N 54°18' W 130°21'1 0.8
2014-Sep-14 15:34N 54°18' W 130°21'0 0.0
2014-Sep-14 14:33N 54°18' W 130°21'0 0.0
2014-Sep-14 03:31N 54°18' W 130°21'0 0.0
2014-Sep-14 02:33N 54°18' W 130°21'0 0.0
2014-Sep-14 01:33N 54°18' W 130°21'0 0.0
2014-Sep-13 21:34N 54°18' W 130°21'0 0.0
2014-Sep-13 20:33N 54°18' W 130°21'0 0.0
2014-Sep-13 19:33N 54°18' W 130°21'0 0.0
2014-Sep-12 20:06N 54°18' W 130°21'4 1.8
2014-Sep-12 18:08N 54°20' W 130°26'1 1.1
2014-Sep-12 17:33N 54°20' W 130°25'3 1.3
2014-Sep-12 15:20N 54°17' W 130°22'0 0.5
2014-Sep-12 14:33N 54°18' W 130°21'0 0.0
2014-Sep-11 22:33N 54°18' W 130°21'0 0.0
2014-Sep-11 21:33N 54°18' W 130°21'0 0.0
2014-Sep-11 20:33N 54°18' W 130°21'0 0.0
2014-Sep-11 19:33N 54°18' W 130°21'2 2.0
2014-Sep-11 18:33N 54°19' W 130°19'2 2.1
2014-Sep-11 17:33N 54°18' W 130°21'0 0.0
2014-Sep-11 16:33N 54°18' W 130°21'0 0.0
2014-Sep-11 15:33N 54°18' W 130°21'0 0.0
2014-Sep-11 14:33N 54°18' W 130°21'0 0.0
2014-Sep-11 04:12N 54°18' W 130°21'0 0.0
2014-Sep-11 01:33N 54°18' W 130°21'0 0.0
2014-Sep-11 00:33N 54°18' W 130°21'0 0.0
2014-Sep-10 23:33N 54°18' W 130°21'0 0.0
2014-Sep-10 22:33N 54°18' W 130°21'0 0.0
2014-Sep-10 21:33N 54°18' W 130°21'2 1.9
2014-Sep-10 20:31N 54°19' W 130°19'4 1.8
2014-Sep-10 18:21N 54°20' W 130°26'4 4.6
2014-Sep-10 17:33N 54°19' W 130°20'2 1.6
2014-Sep-10 16:33N 54°18' W 130°21'0 0.0
2014-Sep-10 15:33N 54°18' W 130°21'2 1.8
2014-Sep-10 14:33N 54°19' W 130°24'2 0.4
2014-Sep-10 09:34N 54°18' W 130°21'0 0.0
2014-Sep-10 08:33N 54°18' W 130°21'0 0.0
2014-Sep-10 07:33N 54°18' W 130°21'0 0.0
2014-Sep-10 06:33N 54°18' W 130°21'0 0.0
2014-Sep-10 05:33N 54°18' W 130°21'0 0.0
2014-Sep-10 04:33N 54°18' W 130°21'2 2.0
2014-Sep-10 03:33N 54°19' W 130°24'2 1.0
2014-Sep-10 01:31N 54°20' W 130°27'4 4.0
2014-Sep-10 00:33N 54°18' W 130°21'0 0.0
2014-Sep-09 23:33N 54°18' W 130°21'0 0.0
2014-Sep-09 22:33N 54°18' W 130°21'2 2.1
2014-Sep-09 21:33N 54°19' W 130°19'2 2.5
2014-Sep-09 20:33N 54°17' W 130°22'0 0.0
2014-Sep-09 09:33N 54°18' W 130°21'0 0.0
2014-Sep-09 08:33N 54°18' W 130°21'0 0.0
2014-Sep-09 07:33N 54°18' W 130°21'0 0.0
2014-Sep-09 04:33N 54°18' W 130°21'0 0.0
2014-Sep-09 03:33N 54°18' W 130°21'  

Dump ship's entire track history